Time,TemperatureF,DewpointF,PressureIn,WindDirection,WindDirectionDegrees,WindSpeedMPH,WindSpeedGustMPH,Humidity,HourlyPrecipIn,Conditions,Clouds,dailyrainin,SoftwareType,DateUTC
2013-04-05 00:00:00,48.2,35.4,30.10,NNW,336,0.0,0.0,61,0.00,,,0.00,Wunderground v.1.15,2013-04-05 05:00:00,
2013-04-05 00:10:00,48.3,35.5,30.09,NNW,336,0.0,0.0,61,0.00,,,0.00,Wunderground v.1.15,2013-04-05 05:10:00,
2013-04-05 00:20:00,48.4,36.0,30.10,NNW,336,0.0,0.0,62,0.00,,,0.00,Wunderground v.1.15,2013-04-05 05:20:00,
2013-04-05 00:30:00,48.4,36.0,30.10,NNW,336,0.0,0.0,62,0.00,,,0.00,Wunderground v.1.15,2013-04-05 05:30:00,
2013-04-05 00:40:00,48.4,36.0,30.10,NNW,336,0.0,0.0,62,0.00,,,0.00,Wunderground v.1.15,2013-04-05 05:40:00,
2013-04-05 00:45:00,48.5,36.1,30.10,NNW,336,0.0,0.0,62,0.00,,,0.00,Wunderground v.1.15,2013-04-05 05:45:00,
2013-04-05 00:50:00,48.5,36.1,30.10,NNW,336,0.0,0.0,62,0.00,,,0.00,Wunderground v.1.15,2013-04-05 05:50:00,
2013-04-05 01:00:00,48.5,36.5,30.10,NNW,336,0.0,0.0,63,0.00,,,0.00,Wunderground v.1.15,2013-04-05 06:00:00,
2013-04-05 01:10:00,48.6,36.2,30.10,NNW,336,0.0,0.0,62,0.00,,,0.00,Wunderground v.1.15,2013-04-05 06:10:00,
2013-04-05 01:20:00,48.6,36.2,30.10,NNW,336,0.0,0.0,62,0.00,,,0.00,Wunderground v.1.15,2013-04-05 06:20:00,
2013-04-05 01:25:00,48.6,36.6,30.10,NNW,336,0.0,0.0,63,0.00,,,0.00,Wunderground v.1.15,2013-04-05 06:25:00,
2013-04-05 01:35:00,48.6,36.2,30.10,NNW,336,0.0,0.0,62,0.00,,,0.00,Wunderground v.1.15,2013-04-05 06:35:00,
2013-04-05 01:40:00,48.6,36.2,30.10,NNW,336,0.0,0.0,62,0.00,,,0.00,Wunderground v.1.15,2013-04-05 06:40:00,
2013-04-05 01:50:00,48.6,36.2,30.10,NNW,336,0.0,0.0,62,0.00,,,0.00,Wunderground v.1.15,2013-04-05 06:50:00,
2013-04-05 02:00:00,48.6,36.2,30.10,NNW,336,0.0,0.0,62,0.00,,,0.00,Wunderground v.1.15,2013-04-05 07:00:00,
2013-04-05 02:10:00,48.5,36.1,30.11,NNW,336,0.0,0.0,62,0.00,,,0.00,Wunderground v.1.15,2013-04-05 07:10:00,
2013-04-05 02:15:00,48.4,36.0,30.10,NNW,336,0.0,0.0,62,0.00,,,0.00,Wunderground v.1.15,2013-04-05 07:15:00,
2013-04-05 02:20:00,48.4,36.0,30.10,NNW,336,0.0,0.0,62,0.00,,,0.00,Wunderground v.1.15,2013-04-05 07:20:00,
2013-04-05 02:30:00,48.3,35.9,30.10,NNW,336,0.0,0.0,62,0.00,,,0.00,Wunderground v.1.15,2013-04-05 07:30:00,
2013-04-05 02:40:00,48.3,35.9,30.10,NNW,336,0.0,0.0,62,0.00,,,0.00,Wunderground v.1.15,2013-04-05 07:40:00,
2013-04-05 02:45:00,48.2,35.4,30.10,NNW,336,0.0,0.0,61,0.00,,,0.00,Wunderground v.1.15,2013-04-05 07:45:00,
2013-04-05 02:50:00,48.2,35.4,30.10,NNW,336,0.0,0.0,61,0.00,,,0.00,Wunderground v.1.15,2013-04-05 07:50:00,
2013-04-05 03:00:00,48.2,35.4,30.09,NNW,336,0.0,0.0,61,0.00,,,0.00,Wunderground v.1.15,2013-04-05 08:00:00,
2013-04-05 03:10:00,48.1,35.3,30.09,NNW,336,0.0,0.0,61,0.00,,,0.00,Wunderground v.1.15,2013-04-05 08:10:00,
2013-04-05 03:20:00,47.9,35.1,30.09,NNW,336,0.0,0.0,61,0.00,,,0.00,Wunderground v.1.15,2013-04-05 08:20:00,
2013-04-05 03:30:00,47.7,34.9,30.09,NNW,336,0.0,0.0,61,0.00,,,0.00,Wunderground v.1.15,2013-04-05 08:30:00,
2013-04-05 03:40:00,47.3,34.5,30.09,NNW,336,0.0,0.0,61,0.00,,,0.00,Wunderground v.1.15,2013-04-05 08:40:00,
2013-04-05 03:50:00,46.8,33.6,30.09,NNW,336,0.0,0.0,60,0.00,,,0.00,Wunderground v.1.15,2013-04-05 08:50:00,
2013-04-05 04:00:00,46.2,32.7,30.09,NNW,336,0.0,0.0,59,0.00,,,0.00,Wunderground v.1.15,2013-04-05 09:00:00,
2013-04-05 04:10:00,45.5,31.6,30.09,NNW,336,0.0,0.0,58,0.00,,,0.00,Wunderground v.1.15,2013-04-05 09:10:00,
2013-04-05 04:20:00,45.0,30.7,30.10,NNW,336,0.0,0.0,57,0.00,,,0.00,Wunderground v.1.15,2013-04-05 09:20:00,
2013-04-05 04:30:00,44.4,29.7,30.09,NNW,336,0.0,0.0,56,0.00,,,0.00,Wunderground v.1.15,2013-04-05 09:30:00,
2013-04-05 04:35:00,44.2,29.0,30.09,NNW,336,0.0,0.0,55,0.00,,,0.00,Wunderground v.1.15,2013-04-05 09:35:00,
2013-04-05 04:40:00,44.1,28.9,30.09,NNW,336,0.0,0.0,55,0.00,,,0.00,Wunderground v.1.15,2013-04-05 09:40:00,
2013-04-05 04:50:00,43.6,28.5,30.10,NNW,336,0.0,0.0,55,0.00,,,0.00,Wunderground v.1.15,2013-04-05 09:50:00,
2013-04-05 04:55:00,43.3,27.8,30.10,NNW,336,0.0,0.0,54,0.00,,,0.00,Wunderground v.1.15,2013-04-05 09:55:00,
2013-04-05 05:05:00,43.0,27.0,30.11,NNW,336,0.0,0.0,53,0.00,,,0.00,Wunderground v.1.15,2013-04-05 10:05:00,
2013-04-05 05:15:00,42.7,26.7,30.11,NNW,336,0.0,0.0,53,0.00,,,0.00,Wunderground v.1.15,2013-04-05 10:15:00,
2013-04-05 05:20:00,42.6,26.2,30.11,NNW,336,0.0,0.0,52,0.00,,,0.00,Wunderground v.1.15,2013-04-05 10:20:00,
2013-04-05 05:25:00,42.4,26.0,30.11,NNW,336,0.0,0.0,52,0.00,,,0.00,Wunderground v.1.15,2013-04-05 10:25:00,
2013-04-05 05:35:00,42.2,25.8,30.11,NNW,336,0.0,0.0,52,0.00,,,0.00,Wunderground v.1.15,2013-04-05 10:35:00,
2013-04-05 05:40:00,42.1,25.3,30.11,NNW,336,0.0,0.0,51,0.00,,,0.00,Wunderground v.1.15,2013-04-05 10:40:00,
2013-04-05 05:45:00,42.0,25.2,30.11,NNW,336,0.0,0.0,51,0.00,,,0.00,Wunderground v.1.15,2013-04-05 10:45:00,
2013-04-05 05:50:00,41.9,25.1,30.12,NNW,336,0.0,0.0,51,0.00,,,0.00,Wunderground v.1.15,2013-04-05 10:50:00,
2013-04-05 05:55:00,41.8,25.0,30.12,NNW,336,0.0,0.0,51,0.00,,,0.00,Wunderground v.1.15,2013-04-05 10:55:00,
2013-04-05 06:00:00,41.6,24.8,30.12,NNW,336,0.0,0.0,51,0.00,,,0.00,Wunderground v.1.15,2013-04-05 11:00:00,
2013-04-05 06:10:00,41.3,24.5,30.12,NNW,336,0.0,0.0,51,0.00,,,0.00,Wunderground v.1.15,2013-04-05 11:10:00,
2013-04-05 06:20:00,41.1,23.9,30.12,NNW,336,0.0,0.0,50,0.00,,,0.00,Wunderground v.1.15,2013-04-05 11:20:00,
2013-04-05 06:25:00,40.9,24.1,30.12,NNW,336,0.0,0.0,51,0.00,,,0.00,Wunderground v.1.15,2013-04-05 11:25:00,
2013-04-05 06:35:00,40.6,23.9,30.13,NNW,336,0.0,0.0,51,0.00,,,0.00,Wunderground v.1.15,2013-04-05 11:35:00,
2013-04-05 06:45:00,40.5,23.3,30.12,NNW,336,0.0,0.0,50,0.00,,,0.00,Wunderground v.1.15,2013-04-05 11:45:00,
2013-04-05 06:50:00,40.5,22.8,30.12,NNW,336,0.0,0.0,49,0.00,,,0.00,Wunderground v.1.15,2013-04-05 11:50:00,
2013-04-05 07:00:00,40.5,22.8,30.12,NNW,336,0.0,0.0,49,0.00,,,0.00,Wunderground v.1.15,2013-04-05 12:00:00,
2013-04-05 07:10:00,40.5,22.8,30.12,NNW,336,0.0,0.0,49,0.00,,,0.00,Wunderground v.1.15,2013-04-05 12:10:00,
2013-04-05 07:15:00,40.5,22.8,30.11,NNW,336,0.0,0.0,49,0.00,,,0.00,Wunderground v.1.15,2013-04-05 12:15:00,
2013-04-05 07:25:00,40.5,22.8,30.11,NNW,336,0.0,0.0,49,0.00,,,0.00,Wunderground v.1.15,2013-04-05 12:25:00,
2013-04-05 07:30:00,40.7,22.5,30.12,NNW,336,0.0,0.0,48,0.00,,,0.00,Wunderground v.1.15,2013-04-05 12:30:00,
2013-04-05 07:35:00,41.1,22.9,30.13,NNW,336,0.0,0.0,48,0.00,,,0.00,Wunderground v.1.15,2013-04-05 12:35:00,
2013-04-05 07:40:00,41.4,22.7,30.13,NNW,336,1.0,1.0,47,0.00,,,0.00,Wunderground v.1.15,2013-04-05 12:40:00,
2013-04-05 07:45:00,41.7,22.9,30.13,NNW,336,1.0,1.0,47,0.00,,,0.00,Wunderground v.1.15,2013-04-05 12:45:00,
2013-04-05 07:50:00,42.2,23.4,30.14,NNW,336,0.0,0.0,47,0.00,,,0.00,Wunderground v.1.15,2013-04-05 12:50:00,
2013-04-05 08:00:00,43.2,24.3,30.14,NNW,336,0.0,0.0,47,0.00,,,0.00,Wunderground v.1.15,2013-04-05 13:00:00,
2013-04-05 08:05:00,43.7,25.3,30.14,NNW,336,0.0,0.0,48,0.00,,,0.00,Wunderground v.1.15,2013-04-05 13:05:00,
2013-04-05 08:10:00,44.3,26.3,30.14,NNW,336,0.0,0.0,49,0.00,,,0.00,Wunderground v.1.15,2013-04-05 13:10:00,
2013-04-05 08:15:00,45.0,28.4,30.14,NNW,336,0.0,0.0,52,0.00,,,0.00,Wunderground v.1.15,2013-04-05 13:15:00,
2013-04-05 08:25:00,46.3,31.4,30.14,NNW,336,0.0,0.0,56,0.00,,,0.00,Wunderground v.1.15,2013-04-05 13:25:00,
2013-04-05 08:35:00,47.9,34.7,30.15,NNW,336,0.0,0.0,60,0.00,,,0.00,Wunderground v.1.15,2013-04-05 13:35:00,
2013-04-05 08:40:00,48.6,35.3,30.16,NNW,336,0.0,0.0,60,0.00,,,0.00,Wunderground v.1.15,2013-04-05 13:40:00,
2013-04-05 08:50:00,50.6,38.9,30.16,NNW,336,0.0,0.0,64,0.00,,,0.00,Wunderground v.1.15,2013-04-05 13:50:00,
2013-04-05 09:00:00,52.2,41.2,30.16,NNW,336,0.0,0.0,66,0.00,,,0.00,Wunderground v.1.15,2013-04-05 14:00:00,
2013-04-05 09:10:00,53.3,42.6,30.16,NNW,336,0.0,1.0,67,0.00,,,0.00,Wunderground v.1.15,2013-04-05 14:10:00,
2013-04-05 09:15:00,53.7,43.0,30.17,NNW,340,1.0,1.0,67,0.00,,,0.00,Wunderground v.1.15,2013-04-05 14:15:00,
2013-04-05 09:20:00,54.2,43.1,30.17,NNW,340,0.0,0.0,66,0.00,,,0.00,Wunderground v.1.15,2013-04-05 14:20:00,
2013-04-05 09:25:00,54.8,44.0,30.17,NNW,340,0.0,0.0,67,0.00,,,0.00,Wunderground v.1.15,2013-04-05 14:25:00,
2013-04-05 09:30:00,55.1,44.3,30.17,NNW,340,0.0,0.0,67,0.00,,,0.00,Wunderground v.1.15,2013-04-05 14:30:00,
2013-04-05 09:40:00,55.6,44.4,30.17,NNW,340,0.0,0.0,66,0.00,,,0.00,Wunderground v.1.15,2013-04-05 14:40:00,
2013-04-05 09:50:00,57.3,46.0,30.17,NNW,340,0.0,0.0,66,0.00,,,0.00,Wunderground v.1.15,2013-04-05 14:50:00,
2013-04-05 10:00:00,59.0,46.8,30.18,NNW,340,1.0,1.0,64,0.00,,,0.00,Wunderground v.1.15,2013-04-05 15:00:00,
2013-04-05 10:05:00,59.2,47.0,30.17,NNW,340,0.0,1.0,64,0.00,,,0.00,Wunderground v.1.15,2013-04-05 15:05:00,
2013-04-05 10:15:00,59.4,47.2,30.17,NNW,339,1.0,4.0,64,0.00,,,0.00,Wunderground v.1.15,2013-04-05 15:15:00,
2013-04-05 10:25:00,60.4,47.7,30.17,NNW,339,1.0,1.0,63,0.00,,,0.00,Wunderground v.1.15,2013-04-05 15:25:00,
2013-04-05 10:30:00,61.0,47.9,30.17,NNW,338,0.0,0.0,62,0.00,,,0.00,Wunderground v.1.15,2013-04-05 15:30:00,
2013-04-05 10:40:00,61.8,48.2,30.17,NNW,334,0.0,6.0,61,0.00,,,0.00,Wunderground v.1.15,2013-04-05 15:40:00,
2013-04-05 10:50:00,62.8,49.1,30.16,NNW,334,0.0,0.0,61,0.00,,,0.00,Wunderground v.1.15,2013-04-05 15:50:00,
2013-04-05 11:00:00,63.4,48.8,30.16,NNW,331,1.0,1.0,59,0.00,,,0.00,Wunderground v.1.15,2013-04-05 16:00:00,
2013-04-05 11:10:00,65.1,48.0,30.16,NW,326,0.0,6.0,54,0.00,,,0.00,Wunderground v.1.15,2013-04-05 16:10:00,
2013-04-05 11:20:00,65.6,48.0,30.16,NNW,331,1.0,1.0,53,0.00,,,0.00,Wunderground v.1.15,2013-04-05 16:20:00,
2013-04-05 11:30:00,65.7,47.1,30.15,NNE,24,1.0,1.0,51,0.00,,,0.00,Wunderground v.1.15,2013-04-05 16:30:00,
2013-04-05 11:40:00,65.9,49.3,30.15,North,360,1.0,4.0,55,0.00,,,0.00,Wunderground v.1.15,2013-04-05 16:40:00,
2013-04-05 11:45:00,66.9,46.6,30.15,North,360,0.0,4.0,48,0.00,,,0.00,Wunderground v.1.15,2013-04-05 16:45:00,
2013-04-05 11:50:00,67.4,47.0,30.15,North,351,1.0,1.0,48,0.00,,,0.00,Wunderground v.1.15,2013-04-05 16:50:00,
2013-04-05 12:00:00,69.8,48.7,30.15,NNE,23,0.0,2.0,47,0.00,,,0.00,Wunderground v.1.15,2013-04-05 17:00:00,
2013-04-05 12:05:00,70.2,47.3,30.14,NNE,29,1.0,2.0,44,0.00,,,0.00,Wunderground v.1.15,2013-04-05 17:05:00,
2013-04-05 12:15:00,72.3,48.5,30.14,North,5,0.0,1.0,43,0.00,,,0.00,Wunderground v.1.15,2013-04-05 17:15:00,
2013-04-05 12:20:00,72.6,48.2,30.14,NW,323,1.0,1.0,42,0.00,,,0.00,Wunderground v.1.15,2013-04-05 17:20:00,
2013-04-05 12:30:00,72.2,46.5,30.14,NW,324,0.0,0.0,40,0.00,,,0.00,Wunderground v.1.15,2013-04-05 17:30:00,
2013-04-05 12:35:00,71.9,48.2,30.14,NNE,13,1.0,2.0,43,0.00,,,0.00,Wunderground v.1.15,2013-04-05 17:35:00,
2013-04-05 12:40:00,71.8,49.3,30.14,North,9,1.0,1.0,45,0.00,,,0.00,Wunderground v.1.15,2013-04-05 17:40:00,
2013-04-05 12:50:00,73.5,49.6,30.13,NNW,337,0.0,0.0,43,0.00,,,0.00,Wunderground v.1.15,2013-04-05 17:50:00,
2013-04-05 13:00:00,70.4,47.4,30.13,East,87,1.0,1.0,44,0.00,,,0.00,Wunderground v.1.15,2013-04-05 18:00:00,
2013-04-05 13:10:00,70.6,47.6,30.12,NE,55,1.0,1.0,44,0.00,,,0.00,Wunderground v.1.15,2013-04-05 18:10:00,
2013-04-05 13:15:00,71.3,50.0,30.12,SE,126,1.0,1.0,47,0.00,,,0.00,Wunderground v.1.15,2013-04-05 18:15:00,
2013-04-05 13:20:00,73.2,50.0,30.12,NW,321,1.0,1.0,44,0.00,,,0.00,Wunderground v.1.15,2013-04-05 18:20:00,
2013-04-05 13:25:00,72.9,47.2,30.11,NNE,17,1.0,1.0,40,0.00,,,0.00,Wunderground v.1.15,2013-04-05 18:25:00,
2013-04-05 13:30:00,73.0,51.0,30.11,NNE,17,0.0,0.0,46,0.00,,,0.00,Wunderground v.1.15,2013-04-05 18:30:00,
2013-04-05 13:35:00,74.7,50.7,30.11,NNE,18,0.0,0.0,43,0.00,,,0.00,Wunderground v.1.15,2013-04-05 18:35:00,
2013-04-05 13:40:00,76.0,49.9,30.10,NNE,19,0.0,0.0,40,0.00,,,0.00,Wunderground v.1.15,2013-04-05 18:40:00,
2013-04-05 13:50:00,76.4,50.3,30.10,North,5,1.0,1.0,40,0.00,,,0.00,Wunderground v.1.15,2013-04-05 18:50:00,
2013-04-05 14:00:00,77.7,50.8,30.10,NNW,333,1.0,1.0,39,0.00,,,0.00,Wunderground v.1.15,2013-04-05 19:00:00,
2013-04-05 14:05:00,78.2,51.9,30.09,NNW,333,0.0,1.0,40,0.00,,,0.00,Wunderground v.1.15,2013-04-05 19:05:00,
2013-04-05 14:15:00,78.9,52.5,30.09,NNW,333,0.0,0.0,40,0.00,,,0.00,Wunderground v.1.15,2013-04-05 19:15:00,
2013-04-05 14:20:00,78.2,51.2,30.09,NNW,333,0.0,0.0,39,0.00,,,0.00,Wunderground v.1.15,2013-04-05 19:20:00,
2013-04-05 14:30:00,77.3,50.4,30.08,NNW,333,0.0,0.0,39,0.00,,,0.00,Wunderground v.1.15,2013-04-05 19:30:00,
2013-04-05 14:40:00,75.2,51.8,30.08,NNW,333,0.0,0.0,44,0.00,,,0.00,Wunderground v.1.15,2013-04-05 19:40:00,
2013-04-05 14:45:00,76.4,51.0,30.08,NNW,333,0.0,0.0,41,0.00,,,0.00,Wunderground v.1.15,2013-04-05 19:45:00,
2013-04-05 14:50:00,77.3,53.1,30.07,NNW,333,0.0,0.0,43,0.00,,,0.00,Wunderground v.1.15,2013-04-05 19:50:00,
2013-04-05 15:00:00,79.8,52.6,30.07,NNW,333,0.0,0.0,39,0.00,,,0.00,Wunderground v.1.15,2013-04-05 20:00:00,
2013-04-05 15:05:00,79.3,49.3,30.07,NE,36,1.0,1.0,35,0.00,,,0.00,Wunderground v.1.15,2013-04-05 20:05:00,
2013-04-05 15:10:00,78.3,52.0,30.06,NE,38,1.0,1.0,40,0.00,,,0.00,Wunderground v.1.15,2013-04-05 20:10:00,
2013-04-05 15:20:00,79.6,51.0,30.06,NE,38,0.0,0.0,37,0.00,,,0.00,Wunderground v.1.15,2013-04-05 20:20:00,
2013-04-05 15:30:00,80.8,52.8,30.06,NNW,328,0.0,0.0,38,0.00,,,0.00,Wunderground v.1.15,2013-04-05 20:30:00,
2013-04-05 15:35:00,81.8,51.5,30.05,NNW,328,0.0,0.0,35,0.00,,,0.00,Wunderground v.1.15,2013-04-05 20:35:00,
2013-04-05 15:40:00,82.5,52.1,30.05,North,11,0.0,0.0,35,0.00,,,0.00,Wunderground v.1.15,2013-04-05 20:40:00,
2013-04-05 15:45:00,79.0,51.9,30.05,NNE,29,0.0,0.0,39,0.00,,,0.00,Wunderground v.1.15,2013-04-05 20:45:00,
2013-04-05 15:50:00,78.7,51.7,30.05,North,360,0.0,0.0,39,0.00,,,0.00,Wunderground v.1.15,2013-04-05 20:50:00,
2013-04-05 15:55:00,79.8,50.5,30.05,NNW,341,0.0,0.0,36,0.00,,,0.00,Wunderground v.1.15,2013-04-05 20:55:00,
2013-04-05 16:05:00,79.4,50.1,30.04,NNW,342,0.0,0.0,36,0.00,,,0.00,Wunderground v.1.15,2013-04-05 21:05:00,
2013-04-05 16:10:00,79.6,50.3,30.04,NNW,342,0.0,0.0,36,0.00,,,0.00,Wunderground v.1.15,2013-04-05 21:10:00,
2013-04-05 16:20:00,79.2,50.7,30.03,NNW,341,0.0,0.0,37,0.00,,,0.00,Wunderground v.1.15,2013-04-05 21:20:00,
2013-04-05 16:30:00,76.6,50.5,30.03,NNW,342,0.0,0.0,40,0.00,,,0.00,Wunderground v.1.15,2013-04-05 21:30:00,
2013-04-05 16:40:00,75.3,51.3,30.03,NNW,341,0.0,0.0,43,0.00,,,0.00,Wunderground v.1.15,2013-04-05 21:40:00,
2013-04-05 16:50:00,76.0,50.6,30.02,NNW,342,0.0,0.0,41,0.00,,,0.00,Wunderground v.1.15,2013-04-05 21:50:00,
2013-04-05 16:55:00,76.0,51.9,30.02,NNW,341,0.0,0.0,43,0.00,,,0.00,Wunderground v.1.15,2013-04-05 21:55:00,
2013-04-05 17:05:00,74.8,51.4,30.02,NNW,341,0.0,0.0,44,0.00,,,0.00,Wunderground v.1.15,2013-04-05 22:05:00,
2013-04-05 17:10:00,74.4,49.2,30.02,NNW,342,0.0,0.0,41,0.00,,,0.00,Wunderground v.1.15,2013-04-05 22:10:00,
2013-04-05 17:15:00,74.2,50.3,30.02,NNW,342,0.0,0.0,43,0.00,,,0.00,Wunderground v.1.15,2013-04-05 22:15:00,
2013-04-05 17:20:00,74.2,49.6,30.02,NNW,342,0.0,0.0,42,0.00,,,0.00,Wunderground v.1.15,2013-04-05 22:20:00,
2013-04-05 17:25:00,74.0,50.7,30.02,NNW,342,0.0,0.0,44,0.00,,,0.00,Wunderground v.1.15,2013-04-05 22:25:00,
2013-04-05 17:35:00,73.1,50.5,30.02,NNW,341,0.0,0.0,45,0.00,,,0.00,Wunderground v.1.15,2013-04-05 22:35:00,
2013-04-05 17:40:00,72.5,49.9,30.02,NNW,342,0.0,0.0,45,0.00,,,0.00,Wunderground v.1.15,2013-04-05 22:40:00,
2013-04-05 17:50:00,72.3,50.4,30.02,NNW,342,0.0,0.0,46,0.00,,,0.00,Wunderground v.1.15,2013-04-05 22:50:00,
2013-04-05 18:00:00,71.9,49.4,30.02,NNW,341,0.0,0.0,45,0.00,,,0.00,Wunderground v.1.15,2013-04-05 23:00:00,
2013-04-05 18:10:00,71.8,49.9,30.02,NNW,342,0.0,0.0,46,0.00,,,0.00,Wunderground v.1.15,2013-04-05 23:10:00,
2013-04-05 18:20:00,71.9,52.2,30.02,NNW,342,0.0,0.0,50,0.00,,,0.00,Wunderground v.1.15,2013-04-05 23:20:00,
2013-04-05 18:25:00,71.7,51.5,30.02,NNW,341,0.0,0.0,49,0.00,,,0.00,Wunderground v.1.15,2013-04-05 23:25:00,
2013-04-05 18:30:00,71.3,51.1,30.02,NNW,342,0.0,0.0,49,0.00,,,0.00,Wunderground v.1.15,2013-04-05 23:30:00,
2013-04-05 18:35:00,70.9,53.4,30.02,NNW,342,0.0,0.0,54,0.00,,,0.00,Wunderground v.1.15,2013-04-05 23:35:00,
2013-04-05 18:40:00,70.7,53.7,30.02,NNW,341,0.0,0.0,55,0.00,,,0.00,Wunderground v.1.15,2013-04-05 23:40:00,
2013-04-05 18:50:00,70.2,52.3,30.02,NNW,342,0.0,0.0,53,0.00,,,0.00,Wunderground v.1.15,2013-04-05 23:50:00,
2013-04-05 18:55:00,69.4,54.9,30.02,NNW,342,0.0,0.0,60,0.00,,,0.00,Wunderground v.1.15,2013-04-05 23:55:00,
2013-04-05 19:00:00,68.6,54.6,30.02,NNW,342,0.0,0.0,61,0.00,,,0.00,Wunderground v.1.15,2013-04-06 00:00:00,
2013-04-05 19:10:00,67.6,54.6,30.02,NNW,341,0.0,0.0,63,0.00,,,0.00,Wunderground v.1.15,2013-04-06 00:10:00,
2013-04-05 19:20:00,66.8,54.2,30.02,NNW,341,0.0,0.0,64,0.00,,,0.00,Wunderground v.1.15,2013-04-06 00:20:00,
2013-04-05 19:30:00,66.0,53.9,30.02,NNW,342,0.0,0.0,65,0.00,,,0.00,Wunderground v.1.15,2013-04-06 00:30:00,
2013-04-05 19:40:00,64.5,52.9,30.02,NNW,341,0.0,0.0,66,0.00,,,0.00,Wunderground v.1.15,2013-04-06 00:40:00,
2013-04-05 19:50:00,63.3,51.7,30.02,NNW,341,0.0,0.0,66,0.00,,,0.00,Wunderground v.1.15,2013-04-06 00:50:00,
2013-04-05 20:00:00,62.2,50.7,30.03,NNW,341,0.0,0.0,66,0.00,,,0.00,Wunderground v.1.15,2013-04-06 01:00:00,
2013-04-05 20:10:00,61.6,50.1,30.03,NNW,342,0.0,0.0,66,0.00,,,0.00,Wunderground v.1.15,2013-04-06 01:10:00,
2013-04-05 20:15:00,61.4,50.3,30.03,NNW,342,0.0,0.0,67,0.00,,,0.00,Wunderground v.1.15,2013-04-06 01:15:00,
2013-04-05 20:25:00,61.2,50.2,30.03,NNW,342,0.0,0.0,67,0.00,,,0.00,Wunderground v.1.15,2013-04-06 01:25:00,
2013-04-05 20:30:00,61.1,50.1,30.02,NNW,341,0.0,0.0,67,0.00,,,0.00,Wunderground v.1.15,2013-04-06 01:30:00,
2013-04-05 20:35:00,60.9,49.9,30.03,NNW,342,0.0,0.0,67,0.00,,,0.00,Wunderground v.1.15,2013-04-06 01:35:00,
2013-04-05 20:45:00,60.5,49.1,30.03,NNW,342,0.0,0.0,66,0.00,,,0.00,Wunderground v.1.15,2013-04-06 01:45:00,
2013-04-05 20:50:00,60.3,48.5,30.03,NNW,341,0.0,0.0,65,0.00,,,0.00,Wunderground v.1.15,2013-04-06 01:50:00,
2013-04-05 21:00:00,59.8,47.2,30.03,NNW,342,0.0,0.0,63,0.00,,,0.00,Wunderground v.1.15,2013-04-06 02:00:00,
2013-04-05 21:10:00,59.0,46.0,30.03,NNW,342,0.0,0.0,62,0.00,,,0.00,Wunderground v.1.15,2013-04-06 02:10:00,
2013-04-05 21:15:00,59.0,45.6,30.03,NNW,342,0.0,0.0,61,0.00,,,0.00,Wunderground v.1.15,2013-04-06 02:15:00,
2013-04-05 21:25:00,58.3,44.0,30.04,NNW,342,0.0,0.0,59,0.00,,,0.00,Wunderground v.1.15,2013-04-06 02:25:00,
2013-04-05 21:30:00,57.9,43.2,30.04,NNW,341,0.0,0.0,58,0.00,,,0.00,Wunderground v.1.15,2013-04-06 02:30:00,
2013-04-05 21:35:00,57.6,42.9,30.04,NNW,341,0.0,0.0,58,0.00,,,0.00,Wunderground v.1.15,2013-04-06 02:35:00,
2013-04-05 21:45:00,57.2,42.5,30.04,NNW,342,0.0,0.0,58,0.00,,,0.00,Wunderground v.1.15,2013-04-06 02:45:00,
2013-04-05 21:50:00,56.9,42.3,30.05,NNW,341,0.0,0.0,58,0.00,,,0.00,Wunderground v.1.15,2013-04-06 02:50:00,
2013-04-05 22:00:00,56.3,41.3,30.05,NNW,342,0.0,0.0,57,0.00,,,0.00,Wunderground v.1.15,2013-04-06 03:00:00,
2013-04-05 22:05:00,55.5,40.0,30.05,NNW,342,0.0,0.0,56,0.00,,,0.00,Wunderground v.1.15,2013-04-06 03:05:00,
2013-04-05 22:10:00,55.0,39.1,30.05,NNW,341,0.0,0.0,55,0.00,,,0.00,Wunderground v.1.15,2013-04-06 03:10:00,
2013-04-05 22:20:00,54.0,37.2,30.05,NNW,342,0.0,0.0,53,0.00,,,0.00,Wunderground v.1.15,2013-04-06 03:20:00,
2013-04-05 22:30:00,53.5,36.3,30.05,NNW,341,0.0,0.0,52,0.00,,,0.00,Wunderground v.1.15,2013-04-06 03:30:00,
2013-04-05 22:40:00,53.2,35.5,30.05,NNW,342,0.0,0.0,51,0.00,,,0.00,Wunderground v.1.15,2013-04-06 03:40:00,
2013-04-05 22:50:00,52.8,35.2,30.05,NNW,342,0.0,0.0,51,0.00,,,0.00,Wunderground v.1.15,2013-04-06 03:50:00,
2013-04-05 23:00:00,52.3,34.7,30.06,NNW,342,0.0,0.0,51,0.00,,,0.00,Wunderground v.1.15,2013-04-06 04:00:00,
2013-04-05 23:05:00,52.1,34.0,30.05,NNW,341,0.0,0.0,50,0.00,,,0.00,Wunderground v.1.15,2013-04-06 04:05:00,
2013-04-05 23:15:00,51.8,33.7,30.06,NNW,341,0.0,0.0,50,0.00,,,0.00,Wunderground v.1.15,2013-04-06 04:15:00,
2013-04-05 23:20:00,51.6,33.6,30.05,NNW,342,0.0,0.0,50,0.00,,,0.00,Wunderground v.1.15,2013-04-06 04:20:00,
2013-04-05 23:25:00,51.4,33.4,30.05,NNW,341,0.0,0.0,50,0.00,,,0.00,Wunderground v.1.15,2013-04-06 04:25:00,
2013-04-05 23:30:00,51.0,32.5,30.05,NNW,342,0.0,0.0,49,0.00,,,0.00,Wunderground v.1.15,2013-04-06 04:30:00,
2013-04-05 23:35:00,50.9,32.4,30.05,NNW,341,0.0,0.0,49,0.00,,,0.00,Wunderground v.1.15,2013-04-06 04:35:00,
2013-04-05 23:45:00,50.6,32.1,30.05,NNW,342,0.0,0.0,49,0.00,,,0.00,Wunderground v.1.15,2013-04-06 04:45:00,
2013-04-05 23:55:00,50.1,31.7,30.05,NNW,341,0.0,0.0,49,0.00,,,0.00,Wunderground v.1.15,2013-04-06 04:55:00,